Time,TemperatureF,DewpointF,PressureIn,WindDirection,WindDirectionDegrees,WindSpeedMPH,WindSpeedGustMPH,Humidity,HourlyPrecipIn,Conditions,Clouds,dailyrainin,SoftwareType,DateUTC
2013-10-02 00:01:00,63.1,58.5,30.27,SW,225,0.0,0.0,85,0.00,,,0.00,WUHU216HW,2013-10-02 04:01:00,
2013-10-02 00:02:00,63.1,58.5,30.27,SW,225,0.0,0.0,85,0.00,,,0.00,WUHU216HW,2013-10-02 04:02:00,
2013-10-02 00:07:00,62.9,58.3,30.27,SW,225,0.0,0.0,85,0.00,,,0.00,WUHU216HW,2013-10-02 04:07:00,
2013-10-02 00:12:00,62.9,58.3,30.28,SW,225,0.0,0.0,85,0.00,,,0.00,WUHU216HW,2013-10-02 04:12:00,
2013-10-02 00:17:00,62.7,58.1,30.28,SW,225,0.0,0.0,85,0.00,,,0.00,WUHU216HW,2013-10-02 04:17:00,
2013-10-02 00:22:00,62.7,58.1,30.28,SW,225,0.0,0.0,85,0.00,,,0.00,WUHU216HW,2013-10-02 04:22:00,
2013-10-02 00:27:00,62.7,58.1,30.27,SW,225,0.0,0.0,85,0.00,,,0.00,WUHU216HW,2013-10-02 04:27:00,
2013-10-02 00:32:00,62.6,58.0,30.27,SW,225,0.0,0.0,85,0.00,,,0.00,WUHU216HW,2013-10-02 04:32:00,
2013-10-02 00:37:00,62.4,57.8,30.28,SW,225,0.0,0.0,85,0.00,,,0.00,WUHU216HW,2013-10-02 04:37:00,
2013-10-02 00:42:00,62.4,57.8,30.28,SW,225,0.0,0.0,85,0.00,,,0.00,WUHU216HW,2013-10-02 04:42:00,
2013-10-02 00:47:00,62.4,57.8,30.28,WSW,248,0.0,0.0,85,0.00,,,0.00,WUHU216HW,2013-10-02 04:47:00,
2013-10-02 00:52:00,62.4,57.8,30.28,WSW,248,0.0,0.0,85,0.00,,,0.00,WUHU216HW,2013-10-02 04:52:00,
2013-10-02 00:57:00,62.4,57.8,30.27,WSW,248,0.0,0.0,85,0.00,,,0.00,WUHU216HW,2013-10-02 04:57:00,
2013-10-02 01:02:00,62.2,57.6,30.27,WSW,248,0.0,0.0,85,0.00,,,0.00,WUHU216HW,2013-10-02 05:02:00,
2013-10-02 01:07:00,62.2,57.6,30.27,WSW,248,0.0,0.0,85,0.00,,,0.00,WUHU216HW,2013-10-02 05:07:00,
2013-10-02 01:12:00,62.2,57.6,30.27,WSW,248,0.0,0.0,85,0.00,,,0.00,WUHU216HW,2013-10-02 05:12:00,
2013-10-02 01:17:00,62.0,57.4,30.27,WSW,248,0.0,0.0,85,0.00,,,0.00,WUHU216HW,2013-10-02 05:17:00,
2013-10-02 01:22:00,61.8,57.3,30.27,WSW,248,0.0,0.0,85,0.00,,,0.00,WUHU216HW,2013-10-02 05:22:00,
2013-10-02 01:27:00,61.8,57.3,30.28,WSW,248,0.0,0.0,85,0.00,,,0.00,WUHU216HW,2013-10-02 05:27:00,
2013-10-02 01:32:00,61.8,57.3,30.28,WSW,248,0.0,0.0,85,0.00,,,0.00,WUHU216HW,2013-10-02 05:32:00,
2013-10-02 01:37:00,61.7,57.1,30.28,WSW,248,0.0,0.0,85,0.00,,,0.00,WUHU216HW,2013-10-02 05:37:00,
2013-10-02 01:42:00,61.7,57.1,30.29,WSW,248,0.0,0.0,85,0.00,,,0.00,WUHU216HW,2013-10-02 05:42:00,
2013-10-02 01:47:00,61.5,56.9,30.29,WSW,248,0.0,0.0,85,0.00,,,0.00,WUHU216HW,2013-10-02 05:47:00,
2013-10-02 01:52:00,61.5,56.9,30.29,WSW,248,0.0,0.0,85,0.00,,,0.00,WUHU216HW,2013-10-02 05:52:00,
2013-10-02 01:57:00,61.3,56.8,30.29,SW,225,0.0,0.0,85,0.00,,,0.00,WUHU216HW,2013-10-02 05:57:00,
2013-10-02 02:02:00,61.1,56.6,30.29,SW,225,0.0,0.0,85,0.00,,,0.00,WUHU216HW,2013-10-02 06:02:00,
2013-10-02 02:07:00,60.9,56.4,30.30,SW,225,0.0,0.0,85,0.00,,,0.00,WUHU216HW,2013-10-02 06:07:00,
2013-10-02 02:12:00,60.9,56.4,30.30,SW,225,0.0,0.0,85,0.00,,,0.00,WUHU216HW,2013-10-02 06:12:00,
2013-10-02 02:17:00,60.6,56.1,30.30,SW,225,0.0,0.0,85,0.00,,,0.00,WUHU216HW,2013-10-02 06:17:00,
2013-10-02 02:22:00,60.4,55.9,30.30,SW,225,0.0,0.0,85,0.00,,,0.00,WUHU216HW,2013-10-02 06:22:00,
2013-10-02 02:27:00,60.4,55.7,30.31,SW,225,0.0,0.0,85,0.00,,,0.00,WUHU216HW,2013-10-02 06:27:00,
2013-10-02 02:32:00,60.0,55.9,30.31,SW,225,0.0,0.0,86,0.00,,,0.00,WUHU216HW,2013-10-02 06:32:00,
2013-10-02 02:37:00,60.0,55.9,30.31,SW,225,0.0,0.0,86,0.00,,,0.00,WUHU216HW,2013-10-02 06:37:00,
2013-10-02 02:42:00,60.0,55.9,30.31,SW,225,0.0,0.0,86,0.00,,,0.00,WUHU216HW,2013-10-02 06:42:00,
2013-10-02 02:47:00,59.9,55.7,30.31,SW,225,0.0,0.0,86,0.00,,,0.00,WUHU216HW,2013-10-02 06:47:00,
2013-10-02 02:52:00,59.9,55.7,30.31,SW,225,0.0,0.0,86,0.00,,,0.00,WUHU216HW,2013-10-02 06:52:00,
2013-10-02 02:57:00,59.7,55.5,30.31,WSW,248,0.0,0.0,86,0.00,,,0.00,WUHU216HW,2013-10-02 06:57:00,
2013-10-02 03:02:00,59.9,55.7,30.32,WSW,248,0.0,0.0,86,0.00,,,0.00,WUHU216HW,2013-10-02 07:02:00,
2013-10-02 03:07:00,59.9,56.0,30.32,WSW,248,0.0,0.0,87,0.00,,,0.00,WUHU216HW,2013-10-02 07:07:00,
2013-10-02 03:12:00,60.0,56.2,30.32,WSW,248,0.0,0.0,87,0.00,,,0.00,WUHU216HW,2013-10-02 07:12:00,
2013-10-02 03:17:00,60.0,56.2,30.32,SW,225,0.0,0.0,87,0.00,,,0.00,WUHU216HW,2013-10-02 07:17:00,
2013-10-02 03:22:00,59.7,55.8,30.32,SW,225,0.0,0.0,87,0.00,,,0.00,WUHU216HW,2013-10-02 07:22:00,
2013-10-02 03:27:00,59.5,55.6,30.32,SW,225,0.8,0.8,87,0.00,,,0.00,WUHU216HW,2013-10-02 07:27:00,
2013-10-02 03:32:00,59.1,55.3,30.32,SW,225,0.0,0.8,87,0.00,,,0.00,WUHU216HW,2013-10-02 07:32:00,
2013-10-02 03:37:00,59.1,55.3,30.32,SW,225,0.0,0.8,87,0.00,,,0.00,WUHU216HW,2013-10-02 07:37:00,
2013-10-02 03:42:00,58.8,54.9,30.32,SW,225,0.0,0.0,87,0.00,,,0.00,WUHU216HW,2013-10-02 07:42:00,
2013-10-02 03:47:00,58.8,54.6,30.32,SW,225,0.0,0.0,86,0.00,,,0.00,WUHU216HW,2013-10-02 07:47:00,
2013-10-02 03:52:00,58.6,54.4,30.32,SW,225,0.0,0.0,86,0.00,,,0.00,WUHU216HW,2013-10-02 07:52:00,
2013-10-02 03:57:00,58.2,53.9,30.32,SW,225,0.0,0.0,86,0.00,,,0.00,WUHU216HW,2013-10-02 07:57:00,
2013-10-02 04:02:00,57.9,53.7,30.32,SW,225,0.0,0.0,86,0.00,,,0.00,WUHU216HW,2013-10-02 08:02:00,
2013-10-02 04:07:00,57.9,53.7,30.32,SW,225,0.0,0.0,86,0.00,,,0.00,WUHU216HW,2013-10-02 08:07:00,
2013-10-02 04:12:00,57.7,53.5,30.32,SW,225,0.0,0.0,86,0.00,,,0.00,WUHU216HW,2013-10-02 08:12:00,
2013-10-02 04:17:00,57.7,53.5,30.32,SW,225,0.0,0.0,86,0.00,,,0.00,WUHU216HW,2013-10-02 08:17:00,
2013-10-02 04:22:00,57.5,53.3,30.32,SW,225,0.0,0.0,86,0.00,,,0.00,WUHU216HW,2013-10-02 08:22:00,
2013-10-02 04:27:00,57.5,53.3,30.33,SW,225,0.0,0.0,86,0.00,,,0.00,WUHU216HW,2013-10-02 08:27:00,
2013-10-02 04:32:00,57.3,53.2,30.33,SW,225,0.0,0.0,86,0.00,,,0.00,WUHU216HW,2013-10-02 08:32:00,
2013-10-02 04:37:00,57.3,53.2,30.33,SW,225,0.0,0.0,86,0.00,,,0.00,WUHU216HW,2013-10-02 08:37:00,
2013-10-02 04:42:00,57.3,53.2,30.34,SW,225,0.0,0.0,86,0.00,,,0.00,WUHU216HW,2013-10-02 08:42:00,
2013-10-02 04:47:00,57.2,53.0,30.34,SW,225,0.0,0.0,86,0.00,,,0.00,WUHU216HW,2013-10-02 08:47:00,
2013-10-02 04:52:00,57.0,52.8,30.34,SW,225,0.0,0.0,86,0.00,,,0.00,WUHU216HW,2013-10-02 08:52:00,
2013-10-02 04:57:00,57.0,52.8,30.34,SW,225,0.0,0.0,86,0.00,,,0.00,WUHU216HW,2013-10-02 08:57:00,
2013-10-02 05:02:00,57.0,52.8,30.34,SW,225,0.0,0.0,86,0.00,,,0.00,WUHU216HW,2013-10-02 09:02:00,
2013-10-02 05:07:00,56.8,52.6,30.34,SW,225,0.0,0.0,86,0.00,,,0.00,WUHU216HW,2013-10-02 09:07:00,
2013-10-02 05:12:00,56.8,52.6,30.34,SW,225,0.0,0.0,86,0.00,,,0.00,WUHU216HW,2013-10-02 09:12:00,
2013-10-02 05:17:00,56.8,52.6,30.35,SW,225,0.0,0.0,86,0.00,,,0.00,WUHU216HW,2013-10-02 09:17:00,
2013-10-02 05:22:00,56.4,52.3,30.35,SW,225,0.0,0.0,86,0.00,,,0.00,WUHU216HW,2013-10-02 09:22:00,
2013-10-02 05:27:00,56.4,52.3,30.35,SW,225,0.0,0.0,86,0.00,,,0.00,WUHU216HW,2013-10-02 09:27:00,
2013-10-02 05:32:00,56.3,52.1,30.35,SW,225,0.0,0.0,86,0.00,,,0.00,WUHU216HW,2013-10-02 09:32:00,
2013-10-02 05:37:00,56.3,52.4,30.36,SW,225,0.0,0.0,87,0.00,,,0.00,WUHU216HW,2013-10-02 09:37:00,
2013-10-02 05:42:00,56.3,52.4,30.36,SW,225,0.0,0.0,87,0.00,,,0.00,WUHU216HW,2013-10-02 09:42:00,
2013-10-02 05:47:00,56.1,52.2,30.36,SW,225,0.0,0.0,87,0.00,,,0.00,WUHU216HW,2013-10-02 09:47:00,
2013-10-02 05:52:00,56.1,52.2,30.37,SW,225,0.0,0.0,87,0.00,,,0.00,WUHU216HW,2013-10-02 09:52:00,
2013-10-02 05:57:00,55.9,52.0,30.37,SW,225,0.0,0.0,87,0.00,,,0.00,WUHU216HW,2013-10-02 09:57:00,
2013-10-02 06:02:00,55.9,52.0,30.37,SW,225,0.0,0.0,87,0.00,,,0.00,WUHU216HW,2013-10-02 10:02:00,
2013-10-02 06:07:00,55.7,51.9,30.37,SW,225,0.0,0.0,87,0.00,,,0.00,WUHU216HW,2013-10-02 10:07:00,
2013-10-02 06:12:00,55.7,51.9,30.37,SW,225,0.0,0.0,87,0.00,,,0.00,WUHU216HW,2013-10-02 10:12:00,
2013-10-02 06:17:00,55.5,51.7,30.37,SW,225,0.0,0.0,87,0.00,,,0.00,WUHU216HW,2013-10-02 10:17:00,
2013-10-02 06:22:00,55.5,52.0,30.37,SW,225,0.0,0.0,88,0.00,,,0.00,WUHU216HW,2013-10-02 10:22:00,
2013-10-02 06:27:00,55.4,51.8,30.37,SW,225,0.0,0.0,88,0.00,,,0.00,WUHU216HW,2013-10-02 10:27:00,
2013-10-02 06:32:00,55.4,51.8,30.38,SW,225,0.0,0.0,88,0.00,,,0.00,WUHU216HW,2013-10-02 10:32:00,
2013-10-02 06:37:00,55.2,51.6,30.38,SW,225,0.0,0.0,88,0.00,,,0.00,WUHU216HW,2013-10-02 10:37:00,
2013-10-02 06:42:00,55.2,51.6,30.38,SW,225,0.0,0.0,88,0.00,,,0.00,WUHU216HW,2013-10-02 10:42:00,
2013-10-02 06:47:00,55.2,51.6,30.38,SW,225,0.0,0.0,88,0.00,,,0.00,WUHU216HW,2013-10-02 10:47:00,
2013-10-02 06:52:00,55.0,51.5,30.39,SW,225,0.0,0.0,88,0.00,,,0.00,WUHU216HW,2013-10-02 10:52:00,
2013-10-02 06:57:00,55.0,51.5,30.39,SW,225,0.0,0.0,88,0.00,,,0.00,WUHU216HW,2013-10-02 10:57:00,
2013-10-02 07:02:00,55.0,51.1,30.40,SW,225,0.0,0.0,87,0.00,,,0.00,WUHU216HW,2013-10-02 11:02:00,
2013-10-02 07:07:00,54.8,51.0,30.40,SW,225,0.0,0.0,87,0.00,,,0.00,WUHU216HW,2013-10-02 11:07:00,
2013-10-02 07:12:00,54.8,51.0,30.39,SW,225,0.0,0.0,87,0.00,,,0.00,WUHU216HW,2013-10-02 11:12:00,
2013-10-02 07:17:00,54.6,50.8,30.40,SW,225,0.0,0.0,87,0.00,,,0.00,WUHU216HW,2013-10-02 11:17:00,
2013-10-02 07:22:00,54.6,50.8,30.40,SW,225,0.0,0.0,87,0.00,,,0.00,WUHU216HW,2013-10-02 11:22:00,
2013-10-02 07:27:00,54.5,50.6,30.40,SW,225,0.0,0.0,87,0.00,,,0.00,WUHU216HW,2013-10-02 11:27:00,
2013-10-02 07:32:00,54.5,50.6,30.40,SW,225,0.0,0.0,87,0.00,,,0.00,WUHU216HW,2013-10-02 11:32:00,
2013-10-02 07:37:00,54.3,50.4,30.41,SW,225,0.0,0.0,87,0.00,,,0.00,WUHU216HW,2013-10-02 11:37:00,
2013-10-02 07:42:00,54.3,50.4,30.41,SW,225,0.0,0.0,87,0.00,,,0.00,WUHU216HW,2013-10-02 11:42:00,
2013-10-02 07:47:00,54.3,50.4,30.41,SW,225,0.0,0.0,87,0.00,,,0.00,WUHU216HW,2013-10-02 11:47:00,
2013-10-02 07:52:00,54.3,50.8,30.42,SW,225,0.0,0.0,88,0.00,,,0.00,WUHU216HW,2013-10-02 11:52:00,
2013-10-02 07:57:00,54.3,50.8,30.42,SW,225,0.0,0.0,88,0.00,,,0.00,WUHU216HW,2013-10-02 11:57:00,
2013-10-02 08:02:00,54.3,50.4,30.42,SW,225,0.0,0.0,87,0.00,,,0.00,WUHU216HW,2013-10-02 12:02:00,
2013-10-02 08:07:00,54.3,50.8,30.42,SW,225,0.0,0.0,88,0.00,,,0.00,WUHU216HW,2013-10-02 12:07:00,
2013-10-02 08:12:00,54.3,50.8,30.42,SW,225,0.0,0.0,88,0.00,,,0.00,WUHU216HW,2013-10-02 12:12:00,
2013-10-02 08:17:00,54.5,50.6,30.42,SW,225,0.0,0.0,87,0.00,,,0.00,WUHU216HW,2013-10-02 12:17:00,
2013-10-02 08:22:00,54.5,50.6,30.42,SW,225,0.0,0.0,87,0.00,,,0.00,WUHU216HW,2013-10-02 12:22:00,
2013-10-02 08:27:00,54.5,50.6,30.42,SW,225,0.0,0.0,87,0.00,,,0.00,WUHU216HW,2013-10-02 12:27:00,
2013-10-02 08:32:00,54.5,50.6,30.42,SW,225,0.0,0.0,87,0.00,,,0.00,WUHU216HW,2013-10-02 12:32:00,
2013-10-02 08:37:00,54.3,50.4,30.42,SW,225,0.0,0.0,87,0.00,,,0.00,WUHU216HW,2013-10-02 12:37:00,
2013-10-02 08:42:00,54.5,50.6,30.43,SW,225,0.0,0.0,87,0.00,,,0.00,WUHU216HW,2013-10-02 12:42:00,
2013-10-02 08:47:00,54.3,50.4,30.43,WSW,248,0.0,0.0,87,0.00,,,0.00,WUHU216HW,2013-10-02 12:47:00,
2013-10-02 08:52:00,54.5,50.6,30.43,SW,225,0.0,0.0,87,0.00,,,0.00,WUHU216HW,2013-10-02 12:52:00,
2013-10-02 08:57:00,54.5,50.6,30.44,SW,225,0.0,0.0,87,0.00,,,0.00,WUHU216HW,2013-10-02 12:57:00,
2013-10-02 09:02:00,54.6,50.8,30.44,SW,225,0.0,0.0,87,0.00,,,0.00,WUHU216HW,2013-10-02 13:02:00,
2013-10-02 09:07:00,54.6,50.8,30.44,SW,225,0.0,0.0,87,0.00,,,0.00,WUHU216HW,2013-10-02 13:07:00,
2013-10-02 09:12:00,54.6,50.8,30.45,SW,225,0.0,0.0,87,0.00,,,0.00,WUHU216HW,2013-10-02 13:12:00,
2013-10-02 09:17:00,54.8,51.0,30.45,SW,225,0.0,0.0,87,0.00,,,0.00,WUHU216HW,2013-10-02 13:17:00,
2013-10-02 09:22:00,55.0,50.8,30.45,SW,225,0.0,0.0,86,0.00,,,0.00,WUHU216HW,2013-10-02 13:22:00,
2013-10-02 09:27:00,55.2,51.0,30.45,SW,225,0.0,0.0,86,0.00,,,0.00,WUHU216HW,2013-10-02 13:27:00,
2013-10-02 09:32:00,55.2,51.0,30.45,SW,225,0.0,0.0,86,0.00,,,0.00,WUHU216HW,2013-10-02 13:32:00,
2013-10-02 09:37:00,55.4,51.2,30.45,SW,225,0.0,0.0,86,0.00,,,0.00,WUHU216HW,2013-10-02 13:37:00,
2013-10-02 09:42:00,55.5,51.4,30.45,SW,225,0.0,0.0,86,0.00,,,0.00,WUHU216HW,2013-10-02 13:42:00,
2013-10-02 09:47:00,55.7,51.2,30.45,SW,225,0.0,0.0,85,0.00,,,0.00,WUHU216HW,2013-10-02 13:47:00,
2013-10-02 09:52:00,55.9,51.4,30.46,SW,225,0.0,0.0,85,0.00,,,0.00,WUHU216HW,2013-10-02 13:52:00,
2013-10-02 09:57:00,55.9,51.4,30.46,SW,225,0.0,0.0,85,0.00,,,0.00,WUHU216HW,2013-10-02 13:57:00,
2013-10-02 10:02:00,56.1,51.6,30.46,SW,225,0.0,0.0,85,0.00,,,0.00,WUHU216HW,2013-10-02 14:02:00,
2013-10-02 10:07:00,56.3,51.8,30.46,SW,225,0.0,0.0,85,0.00,,,0.00,WUHU216HW,2013-10-02 14:07:00,
2013-10-02 10:12:00,56.4,51.9,30.46,SW,225,0.0,0.0,85,0.00,,,0.00,WUHU216HW,2013-10-02 14:12:00,
2013-10-02 10:17:00,56.8,52.0,30.46,SW,225,0.0,0.0,84,0.00,,,0.00,WUHU216HW,2013-10-02 14:17:00,
2013-10-02 10:22:00,57.0,52.1,30.46,SW,225,0.0,0.0,84,0.00,,,0.00,WUHU216HW,2013-10-02 14:22:00,
2013-10-02 10:27:00,57.3,52.5,30.47,SW,225,0.0,0.0,84,0.00,,,0.00,WUHU216HW,2013-10-02 14:27:00,
2013-10-02 10:32:00,57.3,52.2,30.47,SW,225,0.0,0.0,83,0.00,,,0.00,WUHU216HW,2013-10-02 14:32:00,
2013-10-02 10:37:00,57.7,52.5,30.47,SW,225,0.0,0.0,83,0.00,,,0.00,WUHU216HW,2013-10-02 14:37:00,
2013-10-02 10:42:00,57.9,52.7,30.47,SW,225,0.0,0.0,83,0.00,,,0.00,WUHU216HW,2013-10-02 14:42:00,
2013-10-02 10:47:00,58.2,53.1,30.47,SW,225,0.0,0.0,83,0.00,,,0.00,WUHU216HW,2013-10-02 14:47:00,
2013-10-02 10:52:00,58.8,53.3,30.47,SW,225,0.0,0.0,82,0.00,,,0.00,WUHU216HW,2013-10-02 14:52:00,
2013-10-02 10:57:00,58.8,53.3,30.47,SW,225,0.0,0.0,82,0.00,,,0.00,WUHU216HW,2013-10-02 14:57:00,
2013-10-02 11:02:00,59.5,53.7,30.47,SW,225,0.0,0.0,81,0.00,,,0.00,WUHU216HW,2013-10-02 15:02:00,
2013-10-02 11:07:00,59.7,53.6,30.47,SW,225,0.0,0.0,80,0.00,,,0.00,WUHU216HW,2013-10-02 15:07:00,
2013-10-02 11:12:00,60.0,53.9,30.47,SW,225,0.0,0.0,80,0.00,,,0.00,WUHU216HW,2013-10-02 15:12:00,
2013-10-02 11:17:00,60.4,53.9,30.47,SW,225,0.0,0.0,79,0.00,,,0.00,WUHU216HW,2013-10-02 15:17:00,
2013-10-02 11:22:00,60.6,53.7,30.47,SW,225,0.0,0.0,78,0.00,,,0.00,WUHU216HW,2013-10-02 15:22:00,
2013-10-02 11:27:00,60.9,53.7,30.47,SW,225,0.0,0.0,77,0.00,,,0.00,WUHU216HW,2013-10-02 15:27:00,
2013-10-02 11:32:00,61.1,53.5,30.47,SW,225,0.0,0.0,76,0.00,,,0.00,WUHU216HW,2013-10-02 15:32:00,
2013-10-02 11:33:00,61.5,53.5,30.47,SW,225,0.0,0.0,75,0.00,,,0.00,WUHU216HW,2013-10-02 15:33:00,
2013-10-02 11:38:00,62.0,53.6,30.47,SW,225,0.0,0.0,74,0.00,,,0.00,WUHU216HW,2013-10-02 15:38:00,
2013-10-02 11:43:00,62.7,54.3,30.47,SW,225,0.0,0.0,74,0.00,,,0.00,WUHU216HW,2013-10-02 15:43:00,
2013-10-02 11:48:00,63.1,54.3,30.47,SW,225,0.0,0.0,73,0.00,,,0.00,WUHU216HW,2013-10-02 15:48:00,
2013-10-02 11:53:00,63.3,54.1,30.47,SW,225,0.0,0.0,72,0.00,,,0.00,WUHU216HW,2013-10-02 15:53:00,
2013-10-02 11:58:00,64.0,54.5,30.47,SW,225,0.0,0.0,71,0.00,,,0.00,WUHU216HW,2013-10-02 15:58:00,
2013-10-02 12:03:00,64.9,54.9,30.47,SW,225,0.0,0.0,70,0.00,,,0.00,WUHU216HW,2013-10-02 16:03:00,
2013-10-02 12:08:00,65.8,54.5,30.47,SW,225,0.0,0.0,67,0.00,,,0.00,WUHU216HW,2013-10-02 16:08:00,
2013-10-02 12:13:00,67.2,55.0,30.47,SW,225,0.0,0.0,65,0.00,,,0.00,WUHU216HW,2013-10-02 16:13:00,
2013-10-02 12:18:00,68.1,55.0,30.47,SW,225,0.0,0.0,63,0.00,,,0.00,WUHU216HW,2013-10-02 16:18:00,
2013-10-02 12:23:00,68.5,54.9,30.47,SW,225,0.0,0.0,62,0.00,,,0.00,WUHU216HW,2013-10-02 16:23:00,
2013-10-02 12:28:00,68.7,53.8,30.47,SW,225,0.0,0.0,59,0.00,,,0.00,WUHU216HW,2013-10-02 16:28:00,
2013-10-02 12:33:00,68.7,53.3,30.47,SW,225,0.0,0.0,58,0.00,,,0.00,WUHU216HW,2013-10-02 16:33:00,
2013-10-02 12:38:00,69.0,53.6,30.47,SW,225,0.0,0.0,58,0.00,,,0.00,WUHU216HW,2013-10-02 16:38:00,
2013-10-02 12:43:00,69.6,53.7,30.46,SW,225,0.0,0.0,57,0.00,,,0.00,WUHU216HW,2013-10-02 16:43:00,
2013-10-02 12:48:00,70.3,54.3,30.46,SW,225,0.0,0.0,57,0.00,,,0.00,WUHU216HW,2013-10-02 16:48:00,
2013-10-02 12:53:00,70.8,53.3,30.46,SW,225,0.0,0.0,54,0.00,,,0.00,WUHU216HW,2013-10-02 16:53:00,
2013-10-02 12:58:00,71.4,52.8,30.46,South,180,0.0,0.0,52,0.00,,,0.00,WUHU216HW,2013-10-02 16:58:00,
2013-10-02 13:03:00,72.3,53.6,30.47,SSW,203,0.0,0.0,52,0.00,,,0.00,WUHU216HW,2013-10-02 17:03:00,
2013-10-02 13:08:00,72.6,53.9,30.46,SSW,203,0.0,0.0,52,0.00,,,0.00,WUHU216HW,2013-10-02 17:08:00,
2013-10-02 13:13:00,73.5,54.2,30.46,SSW,203,0.0,0.0,51,0.00,,,0.00,WUHU216HW,2013-10-02 17:13:00,
2013-10-02 13:18:00,74.1,54.3,30.46,SSW,203,0.0,0.0,50,0.00,,,0.00,WUHU216HW,2013-10-02 17:18:00,
2013-10-02 13:23:00,74.3,53.2,30.46,SSW,203,0.0,0.0,48,0.00,,,0.00,WUHU216HW,2013-10-02 17:23:00,
2013-10-02 13:28:00,74.6,53.0,30.46,SSW,203,0.0,0.0,47,0.00,,,0.00,WUHU216HW,2013-10-02 17:28:00,
2013-10-02 13:33:00,74.8,52.5,30.46,SSW,203,0.0,0.0,46,0.00,,,0.00,WUHU216HW,2013-10-02 17:33:00,
2013-10-02 13:38:00,74.8,51.9,30.46,SSW,203,0.0,0.0,45,0.00,,,0.00,WUHU216HW,2013-10-02 17:38:00,
2013-10-02 13:43:00,75.0,51.5,30.45,SSW,203,0.0,0.0,44,0.00,,,0.00,WUHU216HW,2013-10-02 17:43:00,
2013-10-02 13:48:00,74.8,50.7,30.45,SSW,203,0.0,0.0,43,0.00,,,0.00,WUHU216HW,2013-10-02 17:48:00,
2013-10-02 13:53:00,74.8,51.3,30.45,WSW,248,0.0,0.0,44,0.00,,,0.00,WUHU216HW,2013-10-02 17:53:00,
2013-10-02 13:58:00,75.0,50.9,30.45,WSW,248,0.0,0.0,43,0.00,,,0.00,WUHU216HW,2013-10-02 17:58:00,
2013-10-02 14:03:00,75.3,51.2,30.45,WSW,248,2.9,2.9,43,0.00,,,0.00,WUHU216HW,2013-10-02 18:03:00,
2013-10-02 14:08:00,75.3,51.2,30.45,WSW,248,2.0,2.9,43,0.00,,,0.00,WUHU216HW,2013-10-02 18:08:00,
2013-10-02 14:13:00,75.3,51.2,30.44,WSW,248,0.0,2.9,43,0.00,,,0.00,WUHU216HW,2013-10-02 18:13:00,
2013-10-02 14:18:00,75.3,51.2,30.45,WSW,248,0.4,3.3,43,0.00,,,0.00,WUHU216HW,2013-10-02 18:18:00,
2013-10-02 14:23:00,75.5,51.4,30.45,SW,225,0.0,3.3,43,0.00,,,0.00,WUHU216HW,2013-10-02 18:23:00,
2013-10-02 14:28:00,75.7,51.6,30.44,WSW,248,0.0,0.0,43,0.00,,,0.00,WUHU216HW,2013-10-02 18:28:00,
2013-10-02 14:33:00,75.7,51.6,30.44,WSW,248,0.8,0.8,43,0.00,,,0.00,WUHU216HW,2013-10-02 18:33:00,
2013-10-02 14:38:00,75.7,51.6,30.44,WSW,248,0.0,0.8,43,0.00,,,0.00,WUHU216HW,2013-10-02 18:38:00,
2013-10-02 14:43:00,75.9,51.7,30.44,SW,225,0.0,0.0,43,0.00,,,0.00,WUHU216HW,2013-10-02 18:43:00,
2013-10-02 14:48:00,75.9,51.7,30.44,SW,225,0.0,0.0,43,0.00,,,0.00,WUHU216HW,2013-10-02 18:48:00,
2013-10-02 14:53:00,76.1,51.3,30.44,SW,225,0.0,0.0,42,0.00,,,0.00,WUHU216HW,2013-10-02 18:53:00,
2013-10-02 14:58:00,76.2,51.4,30.44,SW,225,0.0,0.0,42,0.00,,,0.00,WUHU216HW,2013-10-02 18:58:00,
2013-10-02 15:03:00,76.2,50.2,30.44,SW,225,2.9,2.9,40,0.00,,,0.00,WUHU216HW,2013-10-02 19:03:00,
2013-10-02 15:08:00,76.1,50.0,30.44,SW,225,1.7,2.9,40,0.00,,,0.00,WUHU216HW,2013-10-02 19:08:00,
2013-10-02 15:13:00,75.9,49.9,30.44,SW,225,0.8,3.3,40,0.00,,,0.00,WUHU216HW,2013-10-02 19:13:00,
2013-10-02 15:18:00,75.9,49.1,30.44,WSW,248,0.0,3.3,39,0.00,,,0.00,WUHU216HW,2013-10-02 19:18:00,
2013-10-02 15:23:00,75.7,49.7,30.44,WSW,248,0.0,0.8,40,0.00,,,0.00,WUHU216HW,2013-10-02 19:23:00,
2013-10-02 15:28:00,75.7,49.7,30.44,WSW,248,0.0,0.0,40,0.00,,,0.00,WUHU216HW,2013-10-02 19:28:00,
2013-10-02 15:33:00,75.7,49.7,30.44,WSW,248,0.0,0.0,40,0.00,,,0.00,WUHU216HW,2013-10-02 19:33:00,
2013-10-02 15:38:00,75.7,49.7,30.44,WSW,248,0.0,1.7,40,0.00,,,0.00,WUHU216HW,2013-10-02 19:38:00,
2013-10-02 15:43:00,75.5,48.8,30.44,WSW,248,0.6,1.7,39,0.00,,,0.00,WUHU216HW,2013-10-02 19:43:00,
2013-10-02 15:48:00,75.3,49.4,30.44,WSW,248,2.4,4.2,40,0.00,,,0.00,WUHU216HW,2013-10-02 19:48:00,
2013-10-02 15:53:00,75.3,48.6,30.44,WSW,248,2.0,4.2,39,0.00,,,0.00,WUHU216HW,2013-10-02 19:53:00,
2013-10-02 15:58:00,75.2,50.5,30.43,WSW,248,2.4,2.4,42,0.00,,,0.00,WUHU216HW,2013-10-02 19:58:00,
2013-10-02 16:03:00,75.2,50.5,30.43,WSW,248,0.4,2.4,42,0.00,,,0.00,WUHU216HW,2013-10-02 20:03:00,
2013-10-02 16:08:00,75.3,50.6,30.43,WSW,248,0.0,2.4,42,0.00,,,0.00,WUHU216HW,2013-10-02 20:08:00,
2013-10-02 16:13:00,75.0,49.1,30.43,SW,225,2.9,2.9,40,0.00,,,0.00,WUHU216HW,2013-10-02 20:13:00,
2013-10-02 16:18:00,75.0,49.1,30.43,SW,225,0.0,2.9,40,0.00,,,0.00,WUHU216HW,2013-10-02 20:18:00,
2013-10-02 16:23:00,75.0,49.1,30.42,WSW,248,1.7,2.9,40,0.00,,,0.00,WUHU216HW,2013-10-02 20:23:00,
2013-10-02 16:28:00,74.8,48.2,30.42,SW,225,0.0,1.7,39,0.00,,,0.00,WUHU216HW,2013-10-02 20:28:00,
2013-10-02 16:33:00,74.8,48.9,30.42,WSW,248,0.0,0.0,40,0.00,,,0.00,WUHU216HW,2013-10-02 20:33:00,
2013-10-02 16:38:00,74.6,49.3,30.42,SW,225,0.0,0.0,41,0.00,,,0.00,WUHU216HW,2013-10-02 20:38:00,
2013-10-02 16:43:00,74.6,48.7,30.42,WSW,248,1.1,1.1,40,0.00,,,0.00,WUHU216HW,2013-10-02 20:43:00,
2013-10-02 16:48:00,74.4,49.2,30.42,WSW,248,0.0,1.1,41,0.00,,,0.00,WUHU216HW,2013-10-02 20:48:00,
2013-10-02 16:53:00,74.4,49.2,30.42,WSW,248,0.0,1.1,43,0.00,,,0.00,WUHU216HW,2013-10-02 20:53:00,
2013-10-02 16:58:00,74.4,49.2,30.42,SW,225,0.0,0.0,41,0.00,,,0.00,WUHU216HW,2013-10-02 20:58:00,
2013-10-02 17:03:00,74.3,49.0,30.42,SW,225,0.0,0.0,41,0.00,,,0.00,WUHU216HW,2013-10-02 21:03:00,
2013-10-02 17:08:00,74.1,48.3,30.42,SW,225,0.0,0.0,40,0.00,,,0.00,WUHU216HW,2013-10-02 21:08:00,
2013-10-02 17:13:00,74.1,49.4,30.42,SW,225,0.0,0.0,42,0.00,,,0.00,WUHU216HW,2013-10-02 21:13:00,
2013-10-02 17:18:00,73.7,49.7,30.42,SW,225,0.0,0.0,43,0.00,,,0.00,WUHU216HW,2013-10-02 21:18:00,
2013-10-02 17:23:00,73.2,49.8,30.42,SW,225,0.0,0.0,44,0.00,,,0.00,WUHU216HW,2013-10-02 21:23:00,
2013-10-02 17:28:00,72.6,49.9,30.42,SW,225,0.0,0.0,45,0.00,,,0.00,WUHU216HW,2013-10-02 21:28:00,
2013-10-02 17:33:00,72.3,49.6,30.42,SW,225,0.0,0.0,45,0.00,,,0.00,WUHU216HW,2013-10-02 21:33:00,
2013-10-02 17:38:00,72.1,49.9,30.42,SW,225,0.0,0.0,46,0.00,,,0.00,WUHU216HW,2013-10-02 21:38:00,
2013-10-02 17:43:00,71.4,50.0,30.42,SW,225,0.0,0.0,47,0.00,,,0.00,WUHU216HW,2013-10-02 21:43:00,
2013-10-02 17:48:00,71.2,50.4,30.42,SW,225,0.0,0.0,48,0.00,,,0.00,WUHU216HW,2013-10-02 21:48:00,
2013-10-02 17:53:00,70.7,50.7,30.42,SW,225,0.0,0.0,49,0.00,,,0.00,WUHU216HW,2013-10-02 21:53:00,
2013-10-02 17:58:00,70.3,50.2,30.42,SW,225,0.0,0.0,49,0.00,,,0.00,WUHU216HW,2013-10-02 21:58:00,
2013-10-02 18:03:00,70.1,50.6,30.42,SW,225,0.0,0.0,50,0.00,,,0.00,WUHU216HW,2013-10-02 22:03:00,
2013-10-02 18:08:00,69.6,50.1,30.42,SW,225,0.0,0.0,50,0.00,,,0.00,WUHU216HW,2013-10-02 22:08:00,
2013-10-02 18:13:00,69.4,50.5,30.42,SW,225,0.0,0.0,51,0.00,,,0.00,WUHU216HW,2013-10-02 22:13:00,
2013-10-02 18:18:00,68.9,50.0,30.41,SW,225,0.0,0.0,51,0.00,,,0.00,WUHU216HW,2013-10-02 22:18:00,
2013-10-02 18:23:00,68.7,50.3,30.42,SW,225,0.0,0.0,52,0.00,,,0.00,WUHU216HW,2013-10-02 22:23:00,
2013-10-02 18:28:00,68.1,49.8,30.42,SW,225,0.0,0.0,52,0.00,,,0.00,WUHU216HW,2013-10-02 22:28:00,
2013-10-02 18:33:00,68.0,49.7,30.42,SW,225,0.0,0.0,52,0.00,,,0.00,WUHU216HW,2013-10-02 22:33:00,
2013-10-02 18:38:00,67.8,50.0,30.42,SW,225,0.0,0.0,53,0.00,,,0.00,WUHU216HW,2013-10-02 22:38:00,
2013-10-02 18:43:00,67.2,50.0,30.41,SW,225,0.0,0.0,54,0.00,,,0.00,WUHU216HW,2013-10-02 22:43:00,
2013-10-02 18:48:00,66.9,50.6,30.41,SW,225,0.0,0.0,56,0.00,,,0.00,WUHU216HW,2013-10-02 22:48:00,
2013-10-02 18:53:00,66.5,50.6,30.42,SW,225,0.0,0.0,56,0.00,,,0.00,WUHU216HW,2013-10-02 22:53:00,
2013-10-02 18:58:00,66.0,50.3,30.41,SW,225,0.0,0.0,57,0.00,,,0.00,WUHU216HW,2013-10-02 22:58:00,
2013-10-02 19:03:00,65.8,50.6,30.41,SW,225,0.0,0.0,58,0.00,,,0.00,WUHU216HW,2013-10-02 23:03:00,
2013-10-02 19:08:00,64.9,49.7,30.41,SW,225,0.0,0.0,58,0.00,,,0.00,WUHU216HW,2013-10-02 23:08:00,
2013-10-02 19:13:00,64.5,49.3,30.41,SW,225,0.0,0.0,58,0.00,,,0.00,WUHU216HW,2013-10-02 23:13:00,
2013-10-02 19:18:00,64.0,48.8,30.41,SW,225,0.0,0.0,58,0.00,,,0.00,WUHU216HW,2013-10-02 23:18:00,
2013-10-02 19:23:00,63.3,48.7,30.42,SW,225,0.0,0.0,59,0.00,,,0.00,WUHU216HW,2013-10-02 23:23:00,
2013-10-02 19:28:00,62.7,48.2,30.41,SW,225,0.0,0.0,59,0.00,,,0.00,WUHU216HW,2013-10-02 23:28:00,
2013-10-02 19:33:00,62.4,48.8,30.42,SW,225,0.0,0.0,61,0.00,,,0.00,WUHU216HW,2013-10-02 23:33:00,
2013-10-02 19:38:00,61.8,48.3,30.41,SW,225,0.0,0.0,61,0.00,,,0.00,WUHU216HW,2013-10-02 23:38:00,
2013-10-02 19:43:00,61.3,48.2,30.41,SW,225,0.0,0.0,62,0.00,,,0.00,WUHU216HW,2013-10-02 23:43:00,
2013-10-02 19:48:00,60.9,48.3,30.41,SW,225,0.0,0.0,63,0.00,,,0.00,WUHU216HW,2013-10-02 23:48:00,
2013-10-02 19:50:00,60.4,48.2,30.41,SW,225,0.0,0.0,64,0.00,,,0.00,WUHU216HW,2013-10-02 23:50:00,
2013-10-02 19:55:00,60.0,47.8,30.41,SW,225,0.0,0.0,64,0.00,,,0.00,WUHU216HW,2013-10-02 23:55:00,
2013-10-02 20:00:00,59.7,47.9,30.41,SW,225,0.0,0.0,65,0.00,,,0.00,WUHU216HW,2013-10-03 00:00:00,
2013-10-02 20:05:00,59.1,47.8,30.41,SW,225,0.0,0.0,66,0.00,,,0.00,WUHU216HW,2013-10-03 00:05:00,
2013-10-02 20:10:00,58.8,47.4,30.41,SW,225,0.0,0.0,66,0.00,,,0.00,WUHU216HW,2013-10-03 00:10:00,
2013-10-02 20:15:00,58.8,47.8,30.41,SW,225,0.0,0.0,67,0.00,,,0.00,WUHU216HW,2013-10-03 00:15:00,
2013-10-02 20:20:00,58.2,47.7,30.41,SW,225,0.0,0.0,68,0.00,,,0.00,WUHU216HW,2013-10-03 00:20:00,
2013-10-02 20:25:00,57.9,47.3,30.41,SW,225,0.0,0.0,68,0.00,,,0.00,WUHU216HW,2013-10-03 00:25:00,
2013-10-02 20:30:00,57.7,47.6,30.42,SW,225,0.0,0.0,69,0.00,,,0.00,WUHU216HW,2013-10-03 00:30:00,
2013-10-02 20:35:00,57.3,47.2,30.42,SW,225,0.0,0.0,69,0.00,,,0.00,WUHU216HW,2013-10-03 00:35:00,
2013-10-02 20:40:00,57.0,47.3,30.42,SW,225,0.0,0.0,70,0.00,,,0.00,WUHU216HW,2013-10-03 00:40:00,
2013-10-02 20:45:00,56.8,47.1,30.42,SW,225,0.0,0.0,70,0.00,,,0.00,WUHU216HW,2013-10-03 00:45:00,
2013-10-02 20:50:00,56.4,47.1,30.43,SW,225,0.0,0.0,71,0.00,,,0.00,WUHU216HW,2013-10-03 00:50:00,
2013-10-02 20:55:00,56.4,47.1,30.43,SW,225,0.0,0.0,71,0.00,,,0.00,WUHU216HW,2013-10-03 00:55:00,
2013-10-02 21:00:00,56.1,47.1,30.44,SW,225,0.0,0.0,72,0.00,,,0.00,WUHU216HW,2013-10-03 01:00:00,
2013-10-02 21:05:00,55.9,47.3,30.44,SW,225,0.0,0.0,73,0.00,,,0.00,WUHU216HW,2013-10-03 01:05:00,
2013-10-02 21:10:00,55.7,47.2,30.43,SW,225,0.0,0.0,73,0.00,,,0.00,WUHU216HW,2013-10-03 01:10:00,
2013-10-02 21:15:00,55.5,47.0,30.43,SW,225,0.0,0.0,73,0.00,,,0.00,WUHU216HW,2013-10-03 01:15:00,
2013-10-02 21:20:00,55.2,46.7,30.43,SW,225,0.0,0.0,73,0.00,,,0.00,WUHU216HW,2013-10-03 01:20:00,
2013-10-02 21:25:00,55.2,46.7,30.43,SW,225,0.0,0.0,73,0.00,,,0.00,WUHU216HW,2013-10-03 01:25:00,
2013-10-02 21:30:00,55.0,46.8,30.44,SW,225,0.0,0.0,74,0.00,,,0.00,WUHU216HW,2013-10-03 01:30:00,
2013-10-02 21:35:00,54.6,46.5,30.43,SW,225,0.0,0.0,74,0.00,,,0.00,WUHU216HW,2013-10-03 01:35:00,
2013-10-02 21:40:00,54.3,46.5,30.43,SW,225,0.0,0.0,75,0.00,,,0.00,WUHU216HW,2013-10-03 01:40:00,
2013-10-02 21:45:00,54.3,46.5,30.43,SW,225,0.0,0.0,75,0.00,,,0.00,WUHU216HW,2013-10-03 01:45:00,
2013-10-02 21:50:00,54.1,46.7,30.43,SW,225,0.0,0.0,76,0.00,,,0.00,WUHU216HW,2013-10-03 01:50:00,
2013-10-02 21:55:00,53.9,46.5,30.43,SW,225,0.0,0.0,76,0.00,,,0.00,WUHU216HW,2013-10-03 01:55:00,
2013-10-02 22:00:00,53.7,46.3,30.43,SW,225,0.0,0.0,76,0.00,,,0.00,WUHU216HW,2013-10-03 02:00:00,
2013-10-02 22:05:00,53.6,46.2,30.43,SW,225,0.0,0.0,76,0.00,,,0.00,WUHU216HW,2013-10-03 02:05:00,
2013-10-02 22:10:00,53.4,46.0,30.43,SW,225,0.0,0.0,76,0.00,,,0.00,WUHU216HW,2013-10-03 02:10:00,
2013-10-02 22:15:00,53.4,46.4,30.43,SW,225,0.0,0.0,77,0.00,,,0.00,WUHU216HW,2013-10-03 02:15:00,
2013-10-02 22:20:00,53.2,46.5,30.43,SW,225,0.0,0.0,78,0.00,,,0.00,WUHU216HW,2013-10-03 02:20:00,
2013-10-02 22:25:00,53.2,46.5,30.44,SW,225,0.0,0.0,78,0.00,,,0.00,WUHU216HW,2013-10-03 02:25:00,
2013-10-02 22:30:00,53.2,46.5,30.44,SW,225,0.0,0.0,78,0.00,,,0.00,WUHU216HW,2013-10-03 02:30:00,
2013-10-02 22:35:00,52.8,46.2,30.43,SW,225,0.0,0.0,78,0.00,,,0.00,WUHU216HW,2013-10-03 02:35:00,
2013-10-02 22:40:00,52.7,46.4,30.43,SW,225,0.0,0.0,79,0.00,,,0.00,WUHU216HW,2013-10-03 02:40:00,
2013-10-02 22:45:00,52.5,46.5,30.43,SW,225,0.0,0.0,80,0.00,,,0.00,WUHU216HW,2013-10-03 02:45:00,
2013-10-02 22:50:00,52.5,46.5,30.44,SW,225,0.0,0.0,80,0.00,,,0.00,WUHU216HW,2013-10-03 02:50:00,
2013-10-02 22:55:00,52.5,46.5,30.44,SW,225,0.0,0.0,80,0.00,,,0.00,WUHU216HW,2013-10-03 02:55:00,
2013-10-02 23:00:00,52.3,46.0,30.44,SW,225,0.0,0.0,79,0.00,,,0.00,WUHU216HW,2013-10-03 03:00:00,
2013-10-02 23:05:00,51.9,46.0,30.44,SW,225,0.0,0.0,80,0.00,,,0.00,WUHU216HW,2013-10-03 03:05:00,
2013-10-02 23:10:00,51.8,45.8,30.44,SW,225,0.0,0.0,80,0.00,,,0.00,WUHU216HW,2013-10-03 03:10:00,
2013-10-02 23:15:00,51.6,45.6,30.44,SW,225,0.0,0.0,80,0.00,,,0.00,WUHU216HW,2013-10-03 03:15:00,
2013-10-02 23:20:00,51.6,45.9,30.44,SW,225,0.0,0.0,81,0.00,,,0.00,WUHU216HW,2013-10-03 03:20:00,
2013-10-02 23:25:00,51.6,45.9,30.44,SW,225,0.0,0.0,81,0.00,,,0.00,WUHU216HW,2013-10-03 03:25:00,
2013-10-02 23:30:00,51.6,45.9,30.44,SW,225,0.0,0.0,81,0.00,,,0.00,WUHU216HW,2013-10-03 03:30:00,
2013-10-02 23:35:00,51.6,45.9,30.44,SW,225,0.0,0.0,81,0.00,,,0.00,WUHU216HW,2013-10-03 03:35:00,
2013-10-02 23:40:00,51.6,45.9,30.44,SW,225,0.0,0.0,81,0.00,,,0.00,WUHU216HW,2013-10-03 03:40:00,
2013-10-02 23:45:00,51.6,45.9,30.44,SW,225,0.0,0.0,81,0.00,,,0.00,WUHU216HW,2013-10-03 03:45:00,
2013-10-02 23:50:00,51.2,45.6,30.44,SW,225,0.0,0.0,81,0.00,,,0.00,WUHU216HW,2013-10-03 03:50:00,
2013-10-02 23:55:00,51.0,45.4,30.45,SW,225,0.0,0.0,81,0.00,,,0.00,WUHU216HW,2013-10-03 03:55:00,